sensor_id;sensor_type;location;lat;lon;timestamp;P1;durP1;ratioP1;P2;durP2;ratioP2
19566;SDS011;9930;49.240;8.548;2024-03-06T00:02:04;4.78;;;4.07;;
19566;SDS011;9930;49.240;8.548;2024-03-06T00:04:33;4.97;;;4.05;;
19566;SDS011;9930;49.240;8.548;2024-03-06T00:06:59;4.30;;;3.90;;
19566;SDS011;9930;49.240;8.548;2024-03-06T00:09:27;4.35;;;3.95;;
19566;SDS011;9930;49.240;8.548;2024-03-06T00:11:53;4.10;;;3.80;;
19566;SDS011;9930;49.240;8.548;2024-03-06T00:14:20;4.13;;;3.72;;
19566;SDS011;9930;49.240;8.548;2024-03-06T00:16:47;4.25;;;3.85;;
19566;SDS011;9930;49.240;8.548;2024-03-06T00:19:15;4.35;;;3.95;;
19566;SDS011;9930;49.240;8.548;2024-03-06T00:21:44;4.40;;;4.00;;
19566;SDS011;9930;49.240;8.548;2024-03-06T00:24:13;4.78;;;4.03;;
19566;SDS011;9930;49.240;8.548;2024-03-06T00:26:40;4.32;;;3.92;;
19566;SDS011;9930;49.240;8.548;2024-03-06T00:29:07;4.93;;;4.10;;
19566;SDS011;9930;49.240;8.548;2024-03-06T00:31:34;4.45;;;4.05;;
19566;SDS011;9930;49.240;8.548;2024-03-06T00:33:59;4.47;;;4.07;;
19566;SDS011;9930;49.240;8.548;2024-03-06T00:36:26;4.10;;;3.80;;
19566;SDS011;9930;49.240;8.548;2024-03-06T00:38:52;4.88;;;3.53;;
19566;SDS011;9930;49.240;8.548;2024-03-06T00:41:18;4.15;;;3.75;;
19566;SDS011;9930;49.240;8.548;2024-03-06T00:43:44;5.03;;;4.53;;
19566;SDS011;9930;49.240;8.548;2024-03-06T00:46:10;4.68;;;4.28;;
19566;SDS011;9930;49.240;8.548;2024-03-06T00:48:36;5.18;;;4.78;;
19566;SDS011;9930;49.240;8.548;2024-03-06T00:51:04;5.55;;;5.05;;
19566;SDS011;9930;49.240;8.548;2024-03-06T00:53:36;5.70;;;5.00;;
19566;SDS011;9930;49.240;8.548;2024-03-06T00:56:02;5.55;;;5.05;;
19566;SDS011;9930;49.240;8.548;2024-03-06T00:58:29;5.68;;;5.18;;
19566;SDS011;9930;49.240;8.548;2024-03-06T01:00:54;5.07;;;4.68;;
19566;SDS011;9930;49.240;8.548;2024-03-06T01:03:20;4.80;;;4.40;;
19566;SDS011;9930;49.240;8.548;2024-03-06T01:05:46;5.05;;;4.60;;
19566;SDS011;9930;49.240;8.548;2024-03-06T01:08:11;5.32;;;4.82;;
19566;SDS011;9930;49.240;8.548;2024-03-06T01:10:37;4.72;;;4.32;;
19566;SDS011;9930;49.240;8.548;2024-03-06T01:13:03;4.75;;;4.35;;
19566;SDS011;9930;49.240;8.548;2024-03-06T01:15:29;5.45;;;4.53;;
19566;SDS011;9930;49.240;8.548;2024-03-06T01:17:56;5.82;;;4.35;;
19566;SDS011;9930;49.240;8.548;2024-03-06T01:20:22;4.63;;;4.22;;
19566;SDS011;9930;49.240;8.548;2024-03-06T01:22:48;4.32;;;4.03;;
19566;SDS011;9930;49.240;8.548;2024-03-06T01:25:14;6.22;;;4.25;;
19566;SDS011;9930;49.240;8.548;2024-03-06T01:27:39;4.68;;;4.28;;
19566;SDS011;9930;49.240;8.548;2024-03-06T01:30:05;5.15;;;4.65;;
19566;SDS011;9930;49.240;8.548;2024-03-06T01:32:32;5.15;;;4.65;;
19566;SDS011;9930;49.240;8.548;2024-03-06T01:34:58;5.07;;;4.68;;
19566;SDS011;9930;49.240;8.548;2024-03-06T01:37:24;5.20;;;4.18;;
19566;SDS011;9930;49.240;8.548;2024-03-06T01:39:50;4.95;;;4.45;;
19566;SDS011;9930;49.240;8.548;2024-03-06T01:42:16;4.78;;;4.32;;
19566;SDS011;9930;49.240;8.548;2024-03-06T01:44:43;4.93;;;4.50;;
19566;SDS011;9930;49.240;8.548;2024-03-06T01:47:09;4.63;;;4.32;;
19566;SDS011;9930;49.240;8.548;2024-03-06T01:49:34;5.55;;;4.57;;
19566;SDS011;9930;49.240;8.548;2024-03-06T01:52:01;5.00;;;4.50;;
19566;SDS011;9930;49.240;8.548;2024-03-06T01:54:28;5.00;;;4.55;;
19566;SDS011;9930;49.240;8.548;2024-03-06T01:56:57;4.93;;;4.53;;
19566;SDS011;9930;49.240;8.548;2024-03-06T01:59:26;4.97;;;4.47;;
19566;SDS011;9930;49.240;8.548;2024-03-06T02:01:53;5.10;;;4.60;;
19566;SDS011;9930;49.240;8.548;2024-03-06T02:04:19;4.75;;;4.30;;
19566;SDS011;9930;49.240;8.548;2024-03-06T02:06:45;4.55;;;4.15;;
19566;SDS011;9930;49.240;8.548;2024-03-06T02:09:12;4.35;;;4.03;;
19566;SDS011;9930;49.240;8.548;2024-03-06T02:11:41;4.90;;;4.50;;
19566;SDS011;9930;49.240;8.548;2024-03-06T02:14:10;5.53;;;5.03;;
19566;SDS011;9930;49.240;8.548;2024-03-06T02:16:36;4.80;;;4.40;;
19566;SDS011;9930;49.240;8.548;2024-03-06T02:19:04;4.93;;;4.50;;
19566;SDS011;9930;49.240;8.548;2024-03-06T02:21:30;4.82;;;4.40;;
19566;SDS011;9930;49.240;8.548;2024-03-06T02:23:57;5.38;;;4.88;;
19566;SDS011;9930;49.240;8.548;2024-03-06T02:26:23;4.78;;;4.38;;
19566;SDS011;9930;49.240;8.548;2024-03-06T02:28:49;4.57;;;4.25;;
19566;SDS011;9930;49.240;8.548;2024-03-06T02:31:16;6.00;;;5.50;;
19566;SDS011;9930;49.240;8.548;2024-03-06T02:33:43;5.95;;;5.35;;
19566;SDS011;9930;49.240;8.548;2024-03-06T02:36:10;5.40;;;5.00;;
19566;SDS011;9930;49.240;8.548;2024-03-06T02:38:36;5.72;;;5.22;;
19566;SDS011;9930;49.240;8.548;2024-03-06T02:41:02;5.28;;;4.88;;
19566;SDS011;9930;49.240;8.548;2024-03-06T02:43:29;5.18;;;4.70;;
19566;SDS011;9930;49.240;8.548;2024-03-06T02:45:54;5.15;;;4.75;;
19566;SDS011;9930;49.240;8.548;2024-03-06T02:48:20;5.35;;;4.85;;
19566;SDS011;9930;49.240;8.548;2024-03-06T02:50:46;5.15;;;4.75;;
19566;SDS011;9930;49.240;8.548;2024-03-06T02:53:11;5.05;;;4.65;;
19566;SDS011;9930;49.240;8.548;2024-03-06T02:55:37;5.45;;;4.95;;
19566;SDS011;9930;49.240;8.548;2024-03-06T02:58:03;5.20;;;4.70;;
19566;SDS011;9930;49.240;8.548;2024-03-06T03:00:29;4.68;;;4.28;;
19566;SDS011;9930;49.240;8.548;2024-03-06T03:02:56;5.28;;;4.78;;
19566;SDS011;9930;49.240;8.548;2024-03-06T03:05:23;5.13;;;4.72;;
19566;SDS011;9930;49.240;8.548;2024-03-06T03:07:49;5.07;;;4.68;;
19566;SDS011;9930;49.240;8.548;2024-03-06T03:10:15;5.07;;;4.57;;
19566;SDS011;9930;49.240;8.548;2024-03-06T03:12:41;5.07;;;4.57;;
19566;SDS011;9930;49.240;8.548;2024-03-06T03:15:07;4.85;;;4.28;;
19566;SDS011;9930;49.240;8.548;2024-03-06T03:17:34;4.80;;;4.40;;
19566;SDS011;9930;49.240;8.548;2024-03-06T03:20:00;4.60;;;4.20;;
19566;SDS011;9930;49.240;8.548;2024-03-06T03:22:36;4.65;;;4.25;;
19566;SDS011;9930;49.240;8.548;2024-03-06T03:25:12;4.30;;;4.00;;
19566;SDS011;9930;49.240;8.548;2024-03-06T03:27:39;4.45;;;4.05;;
19566;SDS011;9930;49.240;8.548;2024-03-06T03:30:07;5.10;;;4.28;;
19566;SDS011;9930;49.240;8.548;2024-03-06T03:32:34;4.28;;;3.97;;
19566;SDS011;9930;49.240;8.548;2024-03-06T03:35:00;4.90;;;4.50;;
19566;SDS011;9930;49.240;8.548;2024-03-06T03:37:26;5.40;;;4.90;;
19566;SDS011;9930;49.240;8.548;2024-03-06T03:39:53;4.78;;;4.38;;
19566;SDS011;9930;49.240;8.548;2024-03-06T03:42:19;4.95;;;4.47;;
19566;SDS011;9930;49.240;8.548;2024-03-06T03:44:45;4.93;;;4.50;;
19566;SDS011;9930;49.240;8.548;2024-03-06T03:47:10;5.13;;;4.63;;
19566;SDS011;9930;49.240;8.548;2024-03-06T03:49:37;4.93;;;4.50;;
19566;SDS011;9930;49.240;8.548;2024-03-06T03:52:03;4.30;;;4.00;;
19566;SDS011;9930;49.240;8.548;2024-03-06T03:54:29;4.97;;;4.57;;
19566;SDS011;9930;49.240;8.548;2024-03-06T03:56:55;5.38;;;4.55;;
19566;SDS011;9930;49.240;8.548;2024-03-06T03:59:21;5.07;;;4.57;;
19566;SDS011;9930;49.240;8.548;2024-03-06T04:01:46;5.00;;;4.50;;
19566;SDS011;9930;49.240;8.548;2024-03-06T04:04:13;4.88;;;4.47;;
19566;SDS011;9930;49.240;8.548;2024-03-06T04:06:38;5.32;;;4.82;;
19566;SDS011;9930;49.240;8.548;2024-03-06T04:09:04;4.90;;;4.50;;
19566;SDS011;9930;49.240;8.548;2024-03-06T04:11:30;6.10;;;4.88;;
19566;SDS011;9930;49.240;8.548;2024-03-06T04:14:01;5.30;;;4.80;;
19566;SDS011;9930;49.240;8.548;2024-03-06T04:16:27;5.15;;;4.65;;
19566;SDS011;9930;49.240;8.548;2024-03-06T04:18:52;5.03;;;4.63;;
19566;SDS011;9930;49.240;8.548;2024-03-06T04:21:18;5.40;;;5.00;;
19566;SDS011;9930;49.240;8.548;2024-03-06T04:23:44;5.47;;;4.97;;
19566;SDS011;9930;49.240;8.548;2024-03-06T04:26:09;5.20;;;4.70;;
19566;SDS011;9930;49.240;8.548;2024-03-06T04:28:35;5.63;;;5.13;;
19566;SDS011;9930;49.240;8.548;2024-03-06T04:31:01;6.00;;;5.40;;
19566;SDS011;9930;49.240;8.548;2024-03-06T04:33:27;5.13;;;4.63;;
19566;SDS011;9930;49.240;8.548;2024-03-06T04:35:53;6.13;;;5.53;;
19566;SDS011;9930;49.240;8.548;2024-03-06T04:38:18;5.45;;;4.95;;
19566;SDS011;9930;49.240;8.548;2024-03-06T04:40:44;5.20;;;4.68;;
19566;SDS011;9930;49.240;8.548;2024-03-06T04:43:10;5.18;;;4.70;;
19566;SDS011;9930;49.240;8.548;2024-03-06T04:45:36;5.38;;;4.90;;
19566;SDS011;9930;49.240;8.548;2024-03-06T04:48:02;5.72;;;5.03;;
19566;SDS011;9930;49.240;8.548;2024-03-06T04:50:28;5.55;;;5.05;;
19566;SDS011;9930;49.240;8.548;2024-03-06T04:52:53;5.22;;;4.80;;
19566;SDS011;9930;49.240;8.548;2024-03-06T04:55:20;5.53;;;4.88;;
19566;SDS011;9930;49.240;8.548;2024-03-06T04:57:47;8.60;;;6.20;;
19566;SDS011;9930;49.240;8.548;2024-03-06T05:00:14;9.98;;;7.35;;
19566;SDS011;9930;49.240;8.548;2024-03-06T05:02:40;7.65;;;6.38;;
19566;SDS011;9930;49.240;8.548;2024-03-06T05:05:08;6.53;;;5.40;;
19566;SDS011;9930;49.240;8.548;2024-03-06T05:07:34;6.30;;;5.70;;
19566;SDS011;9930;49.240;8.548;2024-03-06T05:10:00;5.63;;;5.03;;
19566;SDS011;9930;49.240;8.548;2024-03-06T05:12:26;6.10;;;5.60;;
19566;SDS011;9930;49.240;8.548;2024-03-06T05:14:53;5.07;;;4.68;;
19566;SDS011;9930;49.240;8.548;2024-03-06T05:17:20;5.25;;;4.82;;
19566;SDS011;9930;49.240;8.548;2024-03-06T05:19:46;5.18;;;4.68;;
19566;SDS011;9930;49.240;8.548;2024-03-06T05:22:14;5.30;;;4.80;;
19566;SDS011;9930;49.240;8.548;2024-03-06T05:24:41;5.60;;;5.00;;
19566;SDS011;9930;49.240;8.548;2024-03-06T05:27:08;5.30;;;4.90;;
19566;SDS011;9930;49.240;8.548;2024-03-06T05:29:35;5.32;;;4.82;;
19566;SDS011;9930;49.240;8.548;2024-03-06T05:32:02;5.70;;;5.10;;
19566;SDS011;9930;49.240;8.548;2024-03-06T05:34:32;6.68;;;5.25;;
19566;SDS011;9930;49.240;8.548;2024-03-06T05:36:58;6.10;;;5.50;;
19566;SDS011;9930;49.240;8.548;2024-03-06T05:39:26;8.68;;;6.53;;
19566;SDS011;9930;49.240;8.548;2024-03-06T05:41:54;6.32;;;5.53;;
19566;SDS011;9930;49.240;8.548;2024-03-06T05:44:20;7.70;;;6.20;;
19566;SDS011;9930;49.240;8.548;2024-03-06T05:46:46;6.57;;;5.95;;
19566;SDS011;9930;49.240;8.548;2024-03-06T05:49:15;6.18;;;5.57;;
19566;SDS011;9930;49.240;8.548;2024-03-06T05:51:41;6.38;;;5.70;;
19566;SDS011;9930;49.240;8.548;2024-03-06T05:54:07;5.68;;;5.18;;
19566;SDS011;9930;49.240;8.548;2024-03-06T05:56:34;6.07;;;5.45;;
19566;SDS011;9930;49.240;8.548;2024-03-06T05:59:00;5.50;;;5.00;;
19566;SDS011;9930;49.240;8.548;2024-03-06T06:01:33;5.45;;;5.05;;
19566;SDS011;9930;49.240;8.548;2024-03-06T06:04:00;5.60;;;5.10;;
19566;SDS011;9930;49.240;8.548;2024-03-06T06:06:27;6.00;;;5.50;;
19566;SDS011;9930;49.240;8.548;2024-03-06T06:08:56;6.43;;;5.82;;
19566;SDS011;9930;49.240;8.548;2024-03-06T06:11:21;6.18;;;5.68;;
19566;SDS011;9930;49.240;8.548;2024-03-06T06:13:47;5.93;;;5.43;;
19566;SDS011;9930;49.240;8.548;2024-03-06T06:16:13;6.10;;;5.60;;
19566;SDS011;9930;49.240;8.548;2024-03-06T06:18:41;5.93;;;5.32;;
19566;SDS011;9930;49.240;8.548;2024-03-06T06:21:07;6.50;;;5.90;;
19566;SDS011;9930;49.240;8.548;2024-03-06T06:23:33;7.68;;;6.18;;
19566;SDS011;9930;49.240;8.548;2024-03-06T06:26:00;6.90;;;5.72;;
19566;SDS011;9930;49.240;8.548;2024-03-06T06:28:26;6.05;;;5.55;;
19566;SDS011;9930;49.240;8.548;2024-03-06T06:30:51;6.78;;;6.18;;
19566;SDS011;9930;49.240;8.548;2024-03-06T06:33:20;7.65;;;6.70;;
19566;SDS011;9930;49.240;8.548;2024-03-06T06:35:46;5.78;;;5.28;;
19566;SDS011;9930;49.240;8.548;2024-03-06T06:38:12;6.25;;;5.72;;
19566;SDS011;9930;49.240;8.548;2024-03-06T06:40:38;6.28;;;5.43;;
19566;SDS011;9930;49.240;8.548;2024-03-06T06:43:05;6.50;;;5.90;;
19566;SDS011;9930;49.240;8.548;2024-03-06T06:45:34;6.68;;;6.00;;
19566;SDS011;9930;49.240;8.548;2024-03-06T06:48:00;6.85;;;5.97;;
19566;SDS011;9930;49.240;8.548;2024-03-06T06:50:25;7.20;;;6.47;;
19566;SDS011;9930;49.240;8.548;2024-03-06T06:52:52;6.25;;;5.75;;
19566;SDS011;9930;49.240;8.548;2024-03-06T06:55:18;6.80;;;6.18;;
19566;SDS011;9930;49.240;8.548;2024-03-06T06:57:47;7.18;;;6.47;;
19566;SDS011;9930;49.240;8.548;2024-03-06T07:00:14;6.03;;;5.43;;
19566;SDS011;9930;49.240;8.548;2024-03-06T07:02:43;6.35;;;5.75;;
19566;SDS011;9930;49.240;8.548;2024-03-06T07:05:10;6.25;;;5.75;;
19566;SDS011;9930;49.240;8.548;2024-03-06T07:07:36;6.60;;;6.00;;
19566;SDS011;9930;49.240;8.548;2024-03-06T07:10:03;7.07;;;6.32;;
19566;SDS011;9930;49.240;8.548;2024-03-06T07:12:30;6.47;;;5.88;;
19566;SDS011;9930;49.240;8.548;2024-03-06T07:14:56;6.88;;;6.28;;
19566;SDS011;9930;49.240;8.548;2024-03-06T07:17:22;7.03;;;6.10;;
19566;SDS011;9930;49.240;8.548;2024-03-06T07:19:48;6.90;;;6.30;;
19566;SDS011;9930;49.240;8.548;2024-03-06T07:22:15;6.55;;;6.05;;
19566;SDS011;9930;49.240;8.548;2024-03-06T07:24:41;6.78;;;6.05;;
19566;SDS011;9930;49.240;8.548;2024-03-06T07:27:07;6.78;;;6.07;;
19566;SDS011;9930;49.240;8.548;2024-03-06T07:29:36;6.32;;;5.78;;
19566;SDS011;9930;49.240;8.548;2024-03-06T07:32:02;6.90;;;6.22;;
19566;SDS011;9930;49.240;8.548;2024-03-06T07:34:30;6.63;;;6.03;;
19566;SDS011;9930;49.240;8.548;2024-03-06T07:36:57;6.70;;;5.63;;
19566;SDS011;9930;49.240;8.548;2024-03-06T07:39:24;6.40;;;5.80;;
19566;SDS011;9930;49.240;8.548;2024-03-06T07:41:50;6.07;;;5.47;;
19566;SDS011;9930;49.240;8.548;2024-03-06T07:44:16;6.15;;;5.63;;
19566;SDS011;9930;49.240;8.548;2024-03-06T07:46:42;5.85;;;5.38;;
19566;SDS011;9930;49.240;8.548;2024-03-06T07:49:08;6.55;;;5.25;;
19566;SDS011;9930;49.240;8.548;2024-03-06T07:51:34;5.95;;;5.13;;
19566;SDS011;9930;49.240;8.548;2024-03-06T07:54:00;5.68;;;5.18;;
19566;SDS011;9930;49.240;8.548;2024-03-06T07:56:29;5.00;;;4.60;;
19566;SDS011;9930;49.240;8.548;2024-03-06T07:58:55;5.47;;;4.97;;
19566;SDS011;9930;49.240;8.548;2024-03-06T08:01:21;5.40;;;4.90;;
19566;SDS011;9930;49.240;8.548;2024-03-06T08:03:47;6.22;;;4.93;;
19566;SDS011;9930;49.240;8.548;2024-03-06T08:06:13;5.45;;;4.95;;
19566;SDS011;9930;49.240;8.548;2024-03-06T08:08:42;5.60;;;5.10;;
19566;SDS011;9930;49.240;8.548;2024-03-06T08:11:09;5.57;;;5.07;;
19566;SDS011;9930;49.240;8.548;2024-03-06T08:13:39;5.82;;;5.22;;
19566;SDS011;9930;49.240;8.548;2024-03-06T08:16:05;5.53;;;4.70;;
19566;SDS011;9930;49.240;8.548;2024-03-06T08:18:32;5.20;;;4.78;;
19566;SDS011;9930;49.240;8.548;2024-03-06T08:20:59;6.18;;;4.93;;
19566;SDS011;9930;49.240;8.548;2024-03-06T08:23:26;4.90;;;4.50;;
19566;SDS011;9930;49.240;8.548;2024-03-06T08:25:52;4.95;;;4.50;;
19566;SDS011;9930;49.240;8.548;2024-03-06T08:28:18;5.30;;;4.80;;
19566;SDS011;9930;49.240;8.548;2024-03-06T08:30:44;5.63;;;4.75;;
19566;SDS011;9930;49.240;8.548;2024-03-06T08:33:10;5.25;;;4.53;;
19566;SDS011;9930;49.240;8.548;2024-03-06T08:35:36;4.55;;;4.15;;
19566;SDS011;9930;49.240;8.548;2024-03-06T08:38:02;6.25;;;4.35;;
19566;SDS011;9930;49.240;8.548;2024-03-06T08:40:28;4.50;;;4.10;;
19566;SDS011;9930;49.240;8.548;2024-03-06T08:42:55;5.10;;;4.60;;
19566;SDS011;9930;49.240;8.548;2024-03-06T08:45:21;5.20;;;4.70;;
19566;SDS011;9930;49.240;8.548;2024-03-06T08:47:50;5.47;;;4.97;;
19566;SDS011;9930;49.240;8.548;2024-03-06T08:50:17;4.50;;;4.10;;
19566;SDS011;9930;49.240;8.548;2024-03-06T08:52:42;4.50;;;4.15;;
19566;SDS011;9930;49.240;8.548;2024-03-06T08:55:10;5.00;;;4.60;;
19566;SDS011;9930;49.240;8.548;2024-03-06T08:57:36;5.25;;;4.80;;
19566;SDS011;9930;49.240;8.548;2024-03-06T09:00:04;5.38;;;4.68;;
19566;SDS011;9930;49.240;8.548;2024-03-06T09:02:37;4.65;;;4.20;;
19566;SDS011;9930;49.240;8.548;2024-03-06T09:05:04;5.45;;;4.88;;
19566;SDS011;9930;49.240;8.548;2024-03-06T09:07:31;5.40;;;4.90;;
19566;SDS011;9930;49.240;8.548;2024-03-06T09:09:57;4.70;;;4.30;;
19566;SDS011;9930;49.240;8.548;2024-03-06T09:12:22;4.57;;;4.10;;
19566;SDS011;9930;49.240;8.548;2024-03-06T09:14:48;4.97;;;4.30;;
19566;SDS011;9930;49.240;8.548;2024-03-06T09:17:14;6.00;;;4.68;;
19566;SDS011;9930;49.240;8.548;2024-03-06T09:19:40;4.78;;;4.38;;
19566;SDS011;9930;49.240;8.548;2024-03-06T09:22:06;4.57;;;4.18;;
19566;SDS011;9930;49.240;8.548;2024-03-06T09:24:32;4.85;;;4.30;;
19566;SDS011;9930;49.240;8.548;2024-03-06T09:27:02;4.78;;;4.38;;
19566;SDS011;9930;49.240;8.548;2024-03-06T09:29:28;4.47;;;4.13;;
19566;SDS011;9930;49.240;8.548;2024-03-06T09:31:54;4.90;;;3.85;;
19566;SDS011;9930;49.240;8.548;2024-03-06T09:34:20;5.13;;;4.53;;
19566;SDS011;9930;49.240;8.548;2024-03-06T09:36:47;4.90;;;4.43;;
19566;SDS011;9930;49.240;8.548;2024-03-06T09:39:17;6.25;;;5.38;;
19566;SDS011;9930;49.240;8.548;2024-03-06T09:41:49;5.35;;;4.82;;
19566;SDS011;9930;49.240;8.548;2024-03-06T09:44:16;5.25;;;4.72;;
19566;SDS011;9930;49.240;8.548;2024-03-06T09:46:46;5.07;;;4.57;;
19566;SDS011;9930;49.240;8.548;2024-03-06T09:49:16;4.97;;;4.57;;
19566;SDS011;9930;49.240;8.548;2024-03-06T09:51:45;5.22;;;4.75;;
19566;SDS011;9930;49.240;8.548;2024-03-06T09:54:14;5.63;;;4.20;;
19566;SDS011;9930;49.240;8.548;2024-03-06T09:56:42;5.15;;;4.05;;
19566;SDS011;9930;49.240;8.548;2024-03-06T09:59:17;4.50;;;3.90;;
19566;SDS011;9930;49.240;8.548;2024-03-06T10:04:26;5.10;;;4.60;;
19566;SDS011;9930;49.240;8.548;2024-03-06T10:06:54;4.57;;;4.13;;
19566;SDS011;9930;49.240;8.548;2024-03-06T10:09:24;5.03;;;4.63;;
19566;SDS011;9930;49.240;8.548;2024-03-06T10:11:51;4.25;;;3.85;;
19566;SDS011;9930;49.240;8.548;2024-03-06T10:14:19;5.68;;;4.72;;
19566;SDS011;9930;49.240;8.548;2024-03-06T10:16:54;5.38;;;4.50;;
19566;SDS011;9930;49.240;8.548;2024-03-06T10:19:25;4.82;;;4.32;;
19566;SDS011;9930;49.240;8.548;2024-03-06T10:21:53;6.13;;;4.88;;
19566;SDS011;9930;49.240;8.548;2024-03-06T10:24:23;5.40;;;4.90;;
19566;SDS011;9930;49.240;8.548;2024-03-06T10:26:56;4.72;;;4.20;;
19566;SDS011;9930;49.240;8.548;2024-03-06T10:29:24;4.70;;;4.18;;
19566;SDS011;9930;49.240;8.548;2024-03-06T10:31:52;5.28;;;4.78;;
19566;SDS011;9930;49.240;8.548;2024-03-06T10:34:25;4.85;;;4.35;;
19566;SDS011;9930;49.240;8.548;2024-03-06T10:39:20;4.55;;;4.15;;
19566;SDS011;9930;49.240;8.548;2024-03-06T10:41:54;4.72;;;4.30;;
19566;SDS011;9930;49.240;8.548;2024-03-06T10:44:22;4.55;;;4.13;;
19566;SDS011;9930;49.240;8.548;2024-03-06T10:46:55;4.55;;;4.15;;
19566;SDS011;9930;49.240;8.548;2024-03-06T10:49:27;4.85;;;4.35;;
19566;SDS011;9930;49.240;8.548;2024-03-06T10:51:59;4.53;;;4.13;;
19566;SDS011;9930;49.240;8.548;2024-03-06T10:54:27;5.75;;;4.70;;
19566;SDS011;9930;49.240;8.548;2024-03-06T10:57:01;4.90;;;4.45;;
19566;SDS011;9930;49.240;8.548;2024-03-06T10:59:28;4.90;;;4.40;;
19566;SDS011;9930;49.240;8.548;2024-03-06T11:01:55;4.82;;;4.32;;
19566;SDS011;9930;49.240;8.548;2024-03-06T11:04:26;4.70;;;4.30;;
19566;SDS011;9930;49.240;8.548;2024-03-06T11:06:58;5.20;;;4.70;;
19566;SDS011;9930;49.240;8.548;2024-03-06T11:09:34;5.15;;;4.65;;
19566;SDS011;9930;49.240;8.548;2024-03-06T11:12:05;5.20;;;4.65;;
19566;SDS011;9930;49.240;8.548;2024-03-06T11:14:32;5.22;;;4.68;;
19566;SDS011;9930;49.240;8.548;2024-03-06T11:19:31;5.90;;;5.32;;
19566;SDS011;9930;49.240;8.548;2024-03-06T11:28:17;8.50;;;7.10;;
19566;SDS011;9930;49.240;8.548;2024-03-06T11:31:00;9.55;;;8.55;;
19566;SDS011;9930;49.240;8.548;2024-03-06T11:36:15;9.25;;;8.35;;
19566;SDS011;9930;49.240;8.548;2024-03-06T11:44:19;9.80;;;8.80;;
19566;SDS011;9930;49.240;8.548;2024-03-06T11:49:26;9.20;;;8.30;;
19566;SDS011;9930;49.240;8.548;2024-03-06T11:52:02;9.48;;;8.57;;
19566;SDS011;9930;49.240;8.548;2024-03-06T11:54:35;9.55;;;8.57;;
19566;SDS011;9930;49.240;8.548;2024-03-06T11:57:02;9.82;;;8.90;;
19566;SDS011;9930;49.240;8.548;2024-03-06T11:59:31;9.00;;;8.10;;
19566;SDS011;9930;49.240;8.548;2024-03-06T12:02:00;8.30;;;7.50;;
19566;SDS011;9930;49.240;8.548;2024-03-06T12:04:32;8.93;;;8.07;;
19566;SDS011;9930;49.240;8.548;2024-03-06T12:07:02;8.90;;;8.00;;
19566;SDS011;9930;49.240;8.548;2024-03-06T12:09:31;9.40;;;8.43;;
19566;SDS011;9930;49.240;8.548;2024-03-06T12:11:58;9.00;;;8.13;;
19566;SDS011;9930;49.240;8.548;2024-03-06T12:14:25;8.48;;;7.55;;
19566;SDS011;9930;49.240;8.548;2024-03-06T12:16:58;8.43;;;7.63;;
19566;SDS011;9930;49.240;8.548;2024-03-06T12:19:31;8.73;;;7.80;;
19566;SDS011;9930;49.240;8.548;2024-03-06T12:22:01;8.77;;;7.88;;
19566;SDS011;9930;49.240;8.548;2024-03-06T12:24:33;9.57;;;8.70;;
19566;SDS011;9930;49.240;8.548;2024-03-06T12:27:02;8.60;;;7.80;;
19566;SDS011;9930;49.240;8.548;2024-03-06T12:29:30;8.50;;;7.70;;
19566;SDS011;9930;49.240;8.548;2024-03-06T12:31:58;8.50;;;7.70;;
19566;SDS011;9930;49.240;8.548;2024-03-06T12:34:25;9.10;;;8.30;;
19566;SDS011;9930;49.240;8.548;2024-03-06T12:36:50;9.18;;;8.27;;
19566;SDS011;9930;49.240;8.548;2024-03-06T12:39:16;8.95;;;8.10;;
19566;SDS011;9930;49.240;8.548;2024-03-06T12:41:46;9.00;;;8.20;;
19566;SDS011;9930;49.240;8.548;2024-03-06T12:44:12;9.70;;;8.57;;
19566;SDS011;9930;49.240;8.548;2024-03-06T12:46:40;9.45;;;8.55;;
19566;SDS011;9930;49.240;8.548;2024-03-06T12:49:06;9.73;;;8.77;;
19566;SDS011;9930;49.240;8.548;2024-03-06T12:51:31;10.38;;;9.38;;
19566;SDS011;9930;49.240;8.548;2024-03-06T12:53:57;10.15;;;9.15;;
19566;SDS011;9930;49.240;8.548;2024-03-06T12:56:23;10.60;;;9.18;;
19566;SDS011;9930;49.240;8.548;2024-03-06T12:58:50;10.70;;;9.70;;
19566;SDS011;9930;49.240;8.548;2024-03-06T13:01:18;9.57;;;8.70;;
19566;SDS011;9930;49.240;8.548;2024-03-06T13:03:45;11.07;;;9.98;;
19566;SDS011;9930;49.240;8.548;2024-03-06T13:06:10;11.38;;;10.25;;
19566;SDS011;9930;49.240;8.548;2024-03-06T13:08:36;10.73;;;9.73;;
19566;SDS011;9930;49.240;8.548;2024-03-06T13:11:02;10.43;;;9.52;;
19566;SDS011;9930;49.240;8.548;2024-03-06T13:13:28;12.20;;;11.00;;
19566;SDS011;9930;49.240;8.548;2024-03-06T13:15:55;11.73;;;10.63;;
19566;SDS011;9930;49.240;8.548;2024-03-06T13:18:21;12.43;;;11.23;;
19566;SDS011;9930;49.240;8.548;2024-03-06T13:20:47;12.70;;;11.50;;
19566;SDS011;9930;49.240;8.548;2024-03-06T13:23:14;13.00;;;11.70;;
19566;SDS011;9930;49.240;8.548;2024-03-06T13:25:39;12.77;;;11.57;;
19566;SDS011;9930;49.240;8.548;2024-03-06T13:28:05;13.25;;;11.95;;
19566;SDS011;9930;49.240;8.548;2024-03-06T13:30:33;12.50;;;11.30;;
19566;SDS011;9930;49.240;8.548;2024-03-06T13:33:00;13.52;;;12.23;;
19566;SDS011;9930;49.240;8.548;2024-03-06T13:35:26;12.15;;;11.05;;
19566;SDS011;9930;49.240;8.548;2024-03-06T13:37:53;12.43;;;11.18;;
19566;SDS011;9930;49.240;8.548;2024-03-06T13:40:19;12.82;;;11.63;;
19566;SDS011;9930;49.240;8.548;2024-03-06T13:42:45;12.82;;;11.52;;
19566;SDS011;9930;49.240;8.548;2024-03-06T13:45:11;12.13;;;10.93;;
19566;SDS011;9930;49.240;8.548;2024-03-06T13:47:40;12.02;;;10.82;;
19566;SDS011;9930;49.240;8.548;2024-03-06T13:50:08;11.52;;;10.30;;
19566;SDS011;9930;49.240;8.548;2024-03-06T13:52:44;11.77;;;10.57;;
19566;SDS011;9930;49.240;8.548;2024-03-06T13:55:09;11.93;;;10.73;;
19566;SDS011;9930;49.240;8.548;2024-03-06T13:57:36;12.07;;;10.88;;
19566;SDS011;9930;49.240;8.548;2024-03-06T14:00:04;12.15;;;10.85;;
19566;SDS011;9930;49.240;8.548;2024-03-06T14:02:38;11.90;;;10.70;;
19566;SDS011;9930;49.240;8.548;2024-03-06T14:05:05;11.52;;;10.40;;
19566;SDS011;9930;49.240;8.548;2024-03-06T14:07:31;12.18;;;10.98;;
19566;SDS011;9930;49.240;8.548;2024-03-06T14:09:58;12.35;;;11.05;;
19566;SDS011;9930;49.240;8.548;2024-03-06T14:12:24;11.68;;;10.48;;
19566;SDS011;9930;49.240;8.548;2024-03-06T14:14:50;12.23;;;11.05;;
19566;SDS011;9930;49.240;8.548;2024-03-06T14:17:16;11.82;;;10.65;;
19566;SDS011;9930;49.240;8.548;2024-03-06T14:19:41;13.45;;;11.15;;
19566;SDS011;9930;49.240;8.548;2024-03-06T14:22:07;11.68;;;10.52;;
19566;SDS011;9930;49.240;8.548;2024-03-06T14:24:34;12.88;;;11.57;;
19566;SDS011;9930;49.240;8.548;2024-03-06T14:27:00;13.00;;;11.70;;
19566;SDS011;9930;49.240;8.548;2024-03-06T14:29:27;13.25;;;11.95;;
19566;SDS011;9930;49.240;8.548;2024-03-06T14:31:54;12.70;;;11.40;;
19566;SDS011;9930;49.240;8.548;2024-03-06T14:34:21;12.68;;;11.38;;
19566;SDS011;9930;49.240;8.548;2024-03-06T14:36:48;11.98;;;10.77;;
19566;SDS011;9930;49.240;8.548;2024-03-06T14:39:17;13.27;;;11.98;;
19566;SDS011;9930;49.240;8.548;2024-03-06T14:41:46;13.13;;;11.45;;
19566;SDS011;9930;49.240;8.548;2024-03-06T14:44:12;12.98;;;11.68;;
19566;SDS011;9930;49.240;8.548;2024-03-06T14:46:39;12.98;;;11.57;;
19566;SDS011;9930;49.240;8.548;2024-03-06T14:49:06;13.13;;;11.75;;
19566;SDS011;9930;49.240;8.548;2024-03-06T14:51:33;11.52;;;10.32;;
19566;SDS011;9930;49.240;8.548;2024-03-06T14:53:59;11.75;;;10.55;;
19566;SDS011;9930;49.240;8.548;2024-03-06T14:56:24;12.55;;;11.35;;
19566;SDS011;9930;49.240;8.548;2024-03-06T14:58:50;12.82;;;11.52;;
19566;SDS011;9930;49.240;8.548;2024-03-06T15:01:16;12.85;;;11.35;;
19566;SDS011;9930;49.240;8.548;2024-03-06T15:03:43;13.02;;;11.73;;
19566;SDS011;9930;49.240;8.548;2024-03-06T15:06:10;12.73;;;11.43;;
19566;SDS011;9930;49.240;8.548;2024-03-06T15:08:37;12.57;;;11.27;;
19566;SDS011;9930;49.240;8.548;2024-03-06T15:11:02;12.00;;;10.63;;
19566;SDS011;9930;49.240;8.548;2024-03-06T15:13:28;12.63;;;11.32;;
19566;SDS011;9930;49.240;8.548;2024-03-06T15:15:54;12.13;;;11.02;;
19566;SDS011;9930;49.240;8.548;2024-03-06T15:18:20;11.45;;;10.35;;
19566;SDS011;9930;49.240;8.548;2024-03-06T15:20:46;12.27;;;11.07;;
19566;SDS011;9930;49.240;8.548;2024-03-06T15:23:12;11.52;;;10.43;;